EPWAEPMO

Guest
Details From EPWA - Warsaw Okecie - Frederic Chopin
To EPMO - Modlin
Flight Number -
Tags Routegen Generated
Created
Modified
Stats Distance 23 nm / 42 km
Max Altitude 100 ft / 30 m
Waypoints 5
Social Downloads 4
Likes 0
Share VATSIM

Download

Looking for another format? Having issues loading an existing format? Contact us
Advertisement - Login to hide

Notes

Departing runway 33 EPWA. Arriving runway 8 EPMO.

Route

EPWA +52.24_+020.90 +52.35_+020.84 +52.46_+020.79 EPMO

ID Type Via Altitude Latitude Longitude Leg Dist Tot Dist Heading (true) Name
O EPWA APT - 0 ft / 0 m 52.17857˚ 20.95591˚ - 0 nm - -
+52.24_+020.90 LATLON - 100 ft / 30 m 52.24234˚ 20.90008˚ 4 nm 4 nm 332° / 332° -
+52.35_+020.84 LATLON - 100 ft / 30 m 52.35252˚ 20.84385˚ 6 nm 11 nm 343° / 343° -
+52.46_+020.79 LATLON - 100 ft / 30 m 52.46270˚ 20.78762˚ 6 nm 18 nm 343° / 343° -
O EPMO APT - 0 ft / 0 m 52.45267˚ 20.67001˚ 4 nm 22 nm 262° / 262° -

Altitude Profile

Advertisement - Login to hide

EPWA

Details ICAO EPWA (WAW)
Name WARSZAWA Okecie
Region Poland
Timezone Europe/Warsaw (UTC+1.0)
Stats Elevation 328 ft / 100 m (AMSL)
Location 52.165091° 20.966923°
Runways 2
Magnetic Variation 5.801° E

METAR

EPWA 120430Z 17012KT CAVOK 07/04 Q0994 R11/2///95 NOSIG

Decode

TAF

TAF EPWA 112330Z 1200/1224 17010KT 9999 SCT015 BKN040 BECMG 1206/1209 24014KT TEMPO 1209/1220 25018G35KT

Decode

Departure Runways

ID Width Length Bearing (true) Bearing (mag) Surface Threshold Offset Overrun Length
11 164 ft / 50 m 9,163 ft / 2,793 m 114.64° 108.84° Asphalt 0 ft / 0 m 476 ft / 145 m
15 197 ft / 60 m 12,112 ft / 3,692 m 151.85° 146.05° Asphalt 0 ft / 0 m 0 ft / 0 m
29 164 ft / 50 m 9,163 ft / 2,793 m 294.67° 288.87° Asphalt 1,608 ft / 490 m 0 ft / 0 m
33 197 ft / 60 m 12,112 ft / 3,692 m 331.87° 326.07° Asphalt 0 ft / 0 m 0 ft / 0 m

EPMO

Details ICAO EPMO (WMI)
Name MODLIN
Region Poland
Timezone Europe/Warsaw (UTC+1.0)
Stats Elevation 341 ft / 104 m (AMSL)
Location 52.451110° 20.651778°
Runways 1
Magnetic Variation 5.765° E

METAR

EPMO 120430Z 16009KT 120V190 CAVOK 07/05 Q0992

Decode

TAF

TAF EPMO 112330Z 1200/1224 17010KT 9999 SCT015 BKN030 BECMG 1206/1209 24014KT TEMPO 1209/1220 25020G35KT

Decode

Destination Runways

ID Width Length Bearing (true) Bearing (mag) Surface Threshold Offset Overrun Length
08 197 ft / 60 m 8,188 ft / 2,496 m 81.96° 76.19° Asphalt 0 ft / 0 m 0 ft / 0 m
26 197 ft / 60 m 8,188 ft / 2,496 m 261.99° 256.22° Asphalt 0 ft / 0 m 0 ft / 0 m

Popular Alternatives